createdAt,value
2022-11-16T00:01:24.632Z,70.32
2022-11-16T00:04:01.696Z,70.32
2022-11-16T00:06:35.519Z,70.50
2022-11-16T00:09:27.311Z,70.48
2022-11-16T00:12:03.091Z,70.51
2022-11-16T00:14:38.332Z,70.66
2022-11-16T00:17:11.948Z,70.58
2022-11-16T00:19:45.583Z,70.66
2022-11-16T00:22:19.310Z,70.67
2022-11-16T00:24:52.966Z,70.66
2022-11-16T00:27:26.618Z,70.78
2022-11-16T00:30:01.926Z,70.75
2022-11-16T00:32:35.611Z,70.57
2022-11-16T00:35:13.142Z,70.74
2022-11-16T00:37:46.813Z,70.86
2022-11-16T00:40:20.969Z,70.87
2022-11-16T00:42:54.714Z,70.96
2022-11-16T00:45:34.580Z,70.56
2022-11-16T00:48:09.864Z,70.54
2022-11-16T00:50:45.385Z,70.83
2022-11-16T00:53:21.666Z,70.78
2022-11-16T00:55:55.601Z,70.78
2022-11-16T00:58:29.317Z,70.93
2022-11-16T01:01:11.316Z,71.01
2022-11-16T01:03:45.138Z,70.83
2022-11-16T01:06:18.953Z,70.75
2022-11-16T01:08:52.988Z,70.67
2022-11-16T01:11:43.996Z,70.87
2022-11-16T01:14:17.591Z,70.84
2022-11-16T01:16:52.773Z,70.90
2022-11-16T01:19:27.097Z,70.89
2022-11-16T01:22:01.033Z,70.80
2022-11-16T01:24:35.013Z,70.80
2022-11-16T01:27:08.767Z,70.72
2022-11-16T01:29:45.798Z,70.51
2022-11-16T01:32:21.533Z,70.76
2022-11-16T01:34:55.225Z,70.76
2022-11-16T01:37:33.795Z,70.99
2022-11-16T01:40:08.863Z,70.84
2022-11-16T01:42:45.859Z,70.99
2022-11-16T01:45:24.983Z,71.02
2022-11-16T01:48:03.148Z,70.97
2022-11-16T01:50:40.575Z,70.98
2022-11-16T01:53:15.164Z,71.11
2022-11-16T01:55:56.450Z,70.96
2022-11-16T01:58:35.202Z,71.01
2022-11-16T02:01:20.198Z,71.11
2022-11-16T02:04:01.824Z,71.27
2022-11-16T02:06:54.226Z,71.30
2022-11-16T02:09:54.468Z,71.10
2022-11-16T02:12:58.805Z,71.07
2022-11-16T02:15:46.473Z,70.98
2022-11-16T02:18:30.577Z,70.49
2022-11-16T02:21:28.374Z,70.65
2022-11-16T02:24:43.629Z,70.75
2022-11-16T02:27:54.239Z,70.72
2022-11-16T02:30:30.959Z,70.63
2022-11-16T02:33:13.314Z,70.84
2022-11-16T02:35:50.549Z,70.62
2022-11-16T02:38:28.555Z,70.97
2022-11-16T02:41:08.338Z,70.90
2022-11-16T02:43:46.275Z,71.06
2022-11-16T02:46:24.614Z,70.93
2022-11-16T02:49:03.554Z,70.92
2022-11-16T02:51:40.181Z,70.95
2022-11-16T02:54:17.665Z,70.91
2022-11-16T02:56:57.657Z,70.95
2022-11-16T02:59:40.871Z,71.00
2022-11-16T03:02:24.453Z,70.84
2022-11-16T03:05:03.819Z,70.97
2022-11-16T03:07:47.935Z,70.84
2022-11-16T03:10:36.692Z,70.98
2022-11-16T03:13:17.357Z,70.87
2022-11-16T03:15:52.446Z,70.86
2022-11-16T03:18:30.641Z,70.79
2022-11-16T03:21:12.842Z,70.78
2022-11-16T03:23:48.193Z,70.78
2022-11-16T03:26:25.676Z,70.61
2022-11-16T03:29:04.345Z,70.66
2022-11-16T03:31:44.878Z,70.86
2022-11-16T03:34:27.275Z,70.65
2022-11-16T03:37:03.331Z,70.57
2022-11-16T03:39:40.551Z,70.62
2022-11-16T03:45:13.618Z,70.49
2022-11-16T03:47:48.510Z,70.49
2022-11-16T03:50:23.719Z,69.99
2022-11-16T03:52:57.948Z,70.22
2022-11-16T03:55:31.490Z,70.25
2022-11-16T03:58:06.025Z,70.42
2022-11-16T04:00:40.272Z,70.26
2022-11-16T04:03:16.831Z,70.27
2022-11-16T04:06:09.171Z,70.33
2022-11-16T04:09:00.689Z,70.32
2022-11-16T04:11:54.794Z,70.18
2022-11-16T04:14:47.439Z,70.19
2022-11-16T04:17:43.321Z,70.24
2022-11-16T04:20:35.797Z,70.11
2022-11-16T04:23:33.272Z,70.26
2022-11-16T04:26:09.698Z,70.12
2022-11-16T04:28:42.499Z,70.29
2022-11-16T04:31:33.338Z,70.21
2022-11-16T04:34:28.578Z,70.14
2022-11-16T04:37:22.307Z,70.02
2022-11-16T04:39:57.281Z,70.09
2022-11-16T04:42:30.895Z,70.02
2022-11-16T04:45:21.835Z,69.92
2022-11-16T04:47:58.774Z,69.96
2022-11-16T04:50:37.170Z,69.90
2022-11-16T04:53:11.088Z,69.97
2022-11-16T04:55:56.645Z,70.00
2022-11-16T04:58:33.780Z,69.94
2022-11-16T05:01:07.659Z,69.84
2022-11-16T05:03:41.379Z,69.88
2022-11-16T05:06:14.918Z,69.81
2022-11-16T05:08:48.986Z,69.83
2022-11-16T05:11:24.019Z,69.94
2022-11-16T05:13:58.139Z,69.83
2022-11-16T05:16:31.802Z,69.71
2022-11-16T05:19:25.211Z,69.80
2022-11-16T05:21:58.945Z,69.65
2022-11-16T05:24:35.470Z,69.59
2022-11-16T05:27:14.773Z,69.44
2022-11-16T05:29:49.700Z,69.44
2022-11-16T05:32:26.371Z,69.46
2022-11-16T05:35:03.956Z,69.49
2022-11-16T05:37:39.021Z,69.40
2022-11-16T05:40:13.576Z,69.43
2022-11-16T05:42:54.798Z,69.50
2022-11-16T05:45:28.498Z,69.37
2022-11-16T05:48:03.180Z,69.31
2022-11-16T05:50:42.549Z,69.45
2022-11-16T05:53:23.246Z,69.23
2022-11-16T05:55:56.983Z,69.18
2022-11-16T05:58:33.000Z,69.31
2022-11-16T06:01:07.559Z,69.33
2022-11-16T06:03:40.662Z,68.99
2022-11-16T06:06:17.554Z,69.00
2022-11-16T06:08:51.143Z,69.17
2022-11-16T06:11:35.363Z,69.23
2022-11-16T06:14:11.407Z,69.33
2022-11-16T06:16:45.806Z,69.32
2022-11-16T06:19:19.310Z,69.32
2022-11-16T06:21:52.905Z,69.03
2022-11-16T06:24:30.977Z,69.49
2022-11-16T06:27:05.444Z,69.38
2022-11-16T06:29:43.644Z,69.34
2022-11-16T06:32:17.230Z,69.25
2022-11-16T06:34:50.870Z,69.32
2022-11-16T06:37:24.682Z,69.25
2022-11-16T06:39:58.343Z,69.19
2022-11-16T06:42:31.917Z,69.23
2022-11-16T06:45:08.859Z,69.28
2022-11-16T06:47:46.658Z,69.19
2022-11-16T06:50:20.667Z,69.13
2022-11-16T06:52:55.214Z,69.12
2022-11-16T06:55:30.198Z,69.15
2022-11-16T06:58:04.321Z,69.15
2022-11-16T07:00:39.975Z,69.11
2022-11-16T07:03:15.265Z,69.15
2022-11-16T07:05:49.955Z,69.15
2022-11-16T07:08:24.466Z,69.04
2022-11-16T07:11:03.925Z,69.13
2022-11-16T07:13:40.558Z,69.14
2022-11-16T07:16:16.924Z,69.21
2022-11-16T07:18:57.959Z,69.09
2022-11-16T07:21:32.505Z,69.06
2022-11-16T07:24:08.863Z,69.06
2022-11-16T07:26:42.249Z,68.91
2022-11-16T07:29:21.683Z,68.88
2022-11-16T07:32:16.138Z,68.81
2022-11-16T07:35:16.128Z,68.70
2022-11-16T07:37:49.664Z,68.64
2022-11-16T07:40:23.175Z,68.65
2022-11-16T07:42:59.099Z,68.58
2022-11-16T07:46:45.166Z,68.63
2022-11-16T07:49:00.217Z,68.58
2022-11-16T07:51:52.841Z,68.55
2022-11-16T07:54:46.635Z,68.41
2022-11-16T07:57:26.104Z,68.48
2022-11-16T08:00:01.975Z,68.39
2022-11-16T08:02:49.974Z,68.34
2022-11-16T08:05:28.998Z,68.18
2022-11-16T08:08:02.562Z,68.25
2022-11-16T08:10:37.697Z,68.23
2022-11-16T08:13:11.519Z,68.16
2022-11-16T08:15:45.697Z,68.17
2022-11-16T08:18:20.141Z,68.20
2022-11-16T08:20:55.312Z,68.10
2022-11-16T08:23:29.891Z,68.20
2022-11-16T08:26:06.259Z,68.02
2022-11-16T08:28:40.038Z,67.85
2022-11-16T08:31:16.419Z,67.91
2022-11-16T08:33:53.046Z,67.86
2022-11-16T08:36:28.473Z,67.87
2022-11-16T08:39:03.326Z,67.82
2022-11-16T08:41:42.342Z,67.74
2022-11-16T08:44:16.771Z,67.72
2022-11-16T08:46:53.049Z,67.61
2022-11-16T08:49:37.031Z,67.56
2022-11-16T08:52:12.369Z,67.45
2022-11-16T08:54:46.035Z,67.71
2022-11-16T08:57:19.678Z,67.75
2022-11-16T08:59:58.150Z,67.65
2022-11-16T09:02:31.733Z,67.81
2022-11-16T09:05:05.806Z,67.78
2022-11-16T09:07:42.097Z,67.96
2022-11-16T09:10:15.756Z,67.91
2022-11-16T09:12:52.066Z,67.87
2022-11-16T09:15:25.477Z,67.96
2022-11-16T09:17:59.312Z,67.80
2022-11-16T09:20:32.882Z,67.98
2022-11-16T09:23:07.700Z,68.21
2022-11-16T09:25:41.128Z,68.23
2022-11-16T09:28:14.552Z,68.40
2022-11-16T09:30:50.251Z,68.35
2022-11-16T09:33:23.849Z,68.52
2022-11-16T09:36:01.980Z,68.36
2022-11-16T09:41:54.794Z,68.46
2022-11-16T09:44:58.973Z,68.55
2022-11-16T09:47:42.233Z,68.65
2022-11-16T09:50:43.258Z,68.64
2022-11-16T09:53:26.988Z,68.60
2022-11-16T09:56:05.605Z,68.77
2022-11-16T09:58:51.323Z,68.91
2022-11-16T10:01:32.418Z,68.97
2022-11-16T10:04:12.552Z,69.08
2022-11-16T10:07:14.561Z,68.92
2022-11-16T10:09:57.843Z,68.73
2022-11-16T10:12:43.743Z,68.77
2022-11-16T10:15:52.136Z,68.90
2022-11-16T10:18:39.938Z,69.00
2022-11-16T10:21:27.811Z,68.89
2022-11-16T10:24:26.649Z,69.03
2022-11-16T10:27:22.977Z,69.00
2022-11-16T10:30:09.337Z,68.99
2022-11-16T10:32:49.079Z,68.94
2022-11-16T10:35:28.711Z,69.06
2022-11-16T10:38:04.142Z,68.93
2022-11-16T10:40:39.241Z,69.08
2022-11-16T10:43:15.714Z,69.14
2022-11-16T10:45:56.103Z,69.02
2022-11-16T10:48:39.878Z,68.88
2022-11-16T10:51:13.590Z,69.08
2022-11-16T10:53:47.452Z,68.96
2022-11-16T10:56:23.309Z,68.75
2022-11-16T10:58:59.717Z,68.91
2022-11-16T11:01:40.338Z,69.16
2022-11-16T11:04:26.514Z,69.20
2022-11-16T11:07:03.181Z,69.41
2022-11-16T11:09:38.336Z,69.14
2022-11-16T11:12:34.868Z,69.45
2022-11-16T11:15:27.086Z,69.45
2022-11-16T11:18:20.385Z,69.43
2022-11-16T11:21:08.058Z,69.47
2022-11-16T11:23:45.557Z,69.66
2022-11-16T11:26:43.164Z,69.53
2022-11-16T11:29:27.510Z,69.62
2022-11-16T11:32:06.559Z,69.65
2022-11-16T11:34:45.314Z,69.61
2022-11-16T11:37:25.987Z,69.77
2022-11-16T11:40:23.053Z,69.75
2022-11-16T11:42:59.547Z,69.78
2022-11-16T11:45:43.260Z,69.95
2022-11-16T11:48:33.419Z,69.83
2022-11-16T11:51:16.412Z,69.60
2022-11-16T11:53:57.123Z,69.68
2022-11-16T11:56:34.403Z,69.83
2022-11-16T11:59:07.977Z,69.80
2022-11-16T12:02:16.736Z,69.73
2022-11-16T12:05:35.067Z,69.74
2022-11-16T12:08:23.959Z,69.83
2022-11-16T12:11:03.206Z,69.88
2022-11-16T12:13:56.244Z,69.92
2022-11-16T12:16:39.046Z,69.87
2022-11-16T12:19:34.729Z,70.03
2022-11-16T12:22:22.810Z,70.09
2022-11-16T12:25:08.957Z,70.17
2022-11-16T12:27:50.901Z,70.29
2022-11-16T12:30:25.760Z,70.37
2022-11-16T12:33:16.141Z,70.35
2022-11-16T12:36:01.017Z,70.28
2022-11-16T12:38:48.854Z,70.33
2022-11-16T12:42:03.528Z,70.37
2022-11-16T12:44:56.025Z,70.36
2022-11-16T12:47:44.644Z,70.47
2022-11-16T12:50:35.510Z,70.48
2022-11-16T12:53:23.048Z,70.74
2022-11-16T12:56:04.831Z,70.61
2022-11-16T12:58:57.109Z,70.67
2022-11-16T13:01:38.115Z,70.67
2022-11-16T13:04:19.760Z,70.72
2022-11-16T13:06:59.048Z,70.87
2022-11-16T13:09:37.912Z,70.75
2022-11-16T13:12:17.304Z,70.81
2022-11-16T13:14:56.276Z,70.68
2022-11-16T13:17:33.719Z,70.59
2022-11-16T13:20:28.583Z,70.55
2022-11-16T13:23:07.534Z,70.73
2022-11-16T13:25:50.225Z,70.75
2022-11-16T13:28:33.640Z,70.61
2022-11-16T13:34:09.785Z,70.61
2022-11-16T13:36:45.489Z,70.58
2022-11-16T13:39:22.523Z,70.81
2022-11-16T13:42:08.816Z,70.59
2022-11-16T13:44:45.202Z,70.70
2022-11-16T13:47:30.509Z,70.74
2022-11-16T13:50:08.222Z,70.67
2022-11-16T13:53:36.414Z,70.67
2022-11-16T13:55:42.913Z,70.62
2022-11-16T13:58:23.535Z,70.76
2022-11-16T14:01:06.099Z,70.62
2022-11-16T14:03:41.521Z,70.78
2022-11-16T14:07:03.139Z,70.54
2022-11-16T14:09:49.047Z,70.50
2022-11-16T14:12:59.191Z,70.68
2022-11-16T14:15:36.841Z,70.66
2022-11-16T14:18:35.309Z,70.72
2022-11-16T14:21:26.784Z,70.96
2022-11-16T14:24:25.812Z,70.88
2022-11-16T14:27:08.373Z,71.00
2022-11-16T14:29:57.465Z,71.04
2022-11-16T14:32:38.303Z,70.83
2022-11-16T14:35:29.398Z,71.02
2022-11-16T14:38:05.834Z,70.92
2022-11-16T14:40:48.097Z,71.04
2022-11-16T14:43:27.970Z,71.22
2022-11-16T14:46:05.659Z,71.04
2022-11-16T14:48:45.876Z,71.13
2022-11-16T14:51:24.366Z,71.23
2022-11-16T14:54:02.122Z,71.27
2022-11-16T14:56:36.956Z,71.08
2022-11-16T14:59:18.849Z,71.23
2022-11-16T15:01:52.816Z,71.31
2022-11-16T15:04:30.635Z,71.42
2022-11-16T15:07:06.324Z,71.25
2022-11-16T15:09:42.762Z,71.16
2022-11-16T15:12:36.953Z,71.46
2022-11-16T15:15:20.387Z,71.62
2022-11-16T15:18:08.442Z,71.48
2022-11-16T15:20:57.639Z,71.52
2022-11-16T15:23:34.260Z,71.47
2022-11-16T15:26:08.963Z,71.44
2022-11-16T15:28:49.782Z,71.57
2022-11-16T15:31:26.972Z,71.44
2022-11-16T15:34:00.660Z,71.36
2022-11-16T15:36:40.363Z,71.68
2022-11-16T15:39:18.001Z,71.51
2022-11-16T15:41:52.830Z,71.63
2022-11-16T15:47:17.499Z,71.60
2022-11-16T15:49:55.540Z,71.66
2022-11-16T15:52:50.361Z,71.58
2022-11-16T15:55:35.467Z,71.83
2022-11-16T15:58:22.491Z,71.82
2022-11-16T16:00:56.699Z,71.78
2022-11-16T16:03:36.365Z,71.83
2022-11-16T16:06:15.881Z,71.77
2022-11-16T16:09:05.699Z,71.88
2022-11-16T16:11:42.151Z,71.65
2022-11-16T16:14:24.982Z,71.89
2022-11-16T16:16:59.299Z,71.79
2022-11-16T16:19:37.183Z,71.99
2022-11-16T16:22:40.549Z,71.99
2022-11-16T16:25:30.727Z,71.89
2022-11-16T16:28:04.671Z,71.50
2022-11-16T16:30:39.567Z,71.65
2022-11-16T16:33:22.042Z,71.75
2022-11-16T16:35:57.116Z,71.89
2022-11-16T16:38:30.950Z,71.88
2022-11-16T16:41:05.211Z,71.39
2022-11-16T16:43:38.804Z,71.46
2022-11-16T16:46:13.399Z,71.52
2022-11-16T16:48:46.846Z,71.57
2022-11-16T16:51:22.923Z,71.68
2022-11-16T16:53:56.390Z,71.46
2022-11-16T16:56:29.867Z,71.47
2022-11-16T16:59:03.323Z,71.39
2022-11-16T17:01:39.581Z,71.39
2022-11-16T17:04:13.101Z,71.36
2022-11-16T17:06:48.181Z,71.42
2022-11-16T17:09:22.075Z,71.54
2022-11-16T17:11:55.533Z,71.43
2022-11-16T17:14:28.982Z,71.50
2022-11-16T17:17:02.409Z,71.42
2022-11-16T17:19:35.830Z,71.33
2022-11-16T17:22:10.738Z,71.29
2022-11-16T17:24:44.392Z,71.25
2022-11-16T17:27:17.774Z,71.32
2022-11-16T17:29:52.188Z,71.28
2022-11-16T17:32:32.162Z,71.32
2022-11-16T17:35:05.944Z,71.24
2022-11-16T17:37:41.861Z,71.46
2022-11-16T17:40:18.390Z,71.21
2022-11-16T17:42:52.189Z,71.30
2022-11-16T17:45:25.741Z,71.27
2022-11-16T17:47:59.110Z,71.24
2022-11-16T17:50:32.494Z,71.30
2022-11-16T17:53:07.545Z,71.45
2022-11-16T17:55:40.934Z,71.43
2022-11-16T17:58:14.315Z,71.38
2022-11-16T18:00:49.158Z,71.27
2022-11-16T18:03:24.290Z,71.28
2022-11-16T18:06:03.768Z,71.32
2022-11-16T18:08:38.951Z,71.29
2022-11-16T18:11:14.719Z,71.27
2022-11-16T18:13:49.044Z,71.24
2022-11-16T18:16:25.250Z,71.33
2022-11-16T18:19:03.218Z,71.31
2022-11-16T18:21:41.260Z,71.44
2022-11-16T18:24:16.276Z,71.39
2022-11-16T18:26:49.764Z,71.31
2022-11-16T18:29:23.224Z,71.32
2022-11-16T18:31:56.662Z,71.39
2022-11-16T18:34:30.113Z,71.50
2022-11-16T18:37:04.267Z,71.31
2022-11-16T18:39:39.111Z,71.53
2022-11-16T18:42:13.517Z,71.31
2022-11-16T18:44:50.333Z,71.36
2022-11-16T18:47:23.916Z,71.47
2022-11-16T18:49:57.365Z,71.21
2022-11-16T18:52:31.415Z,71.57
2022-11-16T18:55:12.601Z,71.33
2022-11-16T18:57:46.018Z,71.47
2022-11-16T19:00:20.518Z,71.33
2022-11-16T19:02:53.885Z,71.35
2022-11-16T19:05:27.395Z,71.26
2022-11-16T19:08:00.859Z,71.23
2022-11-16T19:10:41.428Z,71.25
2022-11-16T19:13:14.989Z,71.33
2022-11-16T19:15:50.282Z,71.33
2022-11-16T19:18:23.807Z,71.13
2022-11-16T19:21:04.429Z,70.96
2022-11-16T19:23:38.951Z,70.97
2022-11-16T19:26:15.062Z,71.14
2022-11-16T19:28:50.582Z,71.12
2022-11-16T19:31:25.875Z,71.08
2022-11-16T19:34:01.979Z,71.23
2022-11-16T19:36:38.023Z,70.89
2022-11-16T19:39:11.460Z,70.97
2022-11-16T19:41:46.328Z,71.04
2022-11-16T19:44:20.182Z,70.96
2022-11-16T19:46:54.598Z,70.75
2022-11-16T19:49:28.008Z,70.78
2022-11-16T19:52:02.152Z,70.83
2022-11-16T19:54:35.582Z,70.76
2022-11-16T19:57:10.412Z,70.86
2022-11-16T19:59:44.023Z,70.83
2022-11-16T20:02:18.224Z,70.69
2022-11-16T20:04:52.688Z,70.83
2022-11-16T20:07:26.643Z,70.81
2022-11-16T20:09:59.953Z,70.47
2022-11-16T20:12:34.769Z,70.60
2022-11-16T20:15:08.751Z,70.79
2022-11-16T20:17:41.921Z,70.49
2022-11-16T20:20:16.010Z,70.71
2022-11-16T20:22:50.839Z,70.69
2022-11-16T20:25:24.228Z,70.79
2022-11-16T20:27:59.045Z,70.78
2022-11-16T20:30:32.594Z,70.75
2022-11-16T20:33:06.087Z,70.78
2022-11-16T20:35:41.997Z,70.81
2022-11-16T20:38:15.538Z,71.03
2022-11-16T20:40:48.928Z,71.00
2022-11-16T20:43:23.856Z,71.04
2022-11-16T20:45:57.239Z,70.96
2022-11-16T20:48:30.691Z,70.92
2022-11-16T20:51:04.836Z,71.08
2022-11-16T20:53:38.713Z,71.11
2022-11-16T20:56:15.065Z,70.60
2022-11-16T20:58:53.224Z,70.69
2022-11-16T21:01:31.920Z,70.77
2022-11-16T21:04:07.776Z,70.98
2022-11-16T21:06:41.380Z,70.85
2022-11-16T21:09:23.506Z,71.03
2022-11-16T21:12:14.646Z,71.02
2022-11-16T21:14:49.633Z,70.95
2022-11-16T21:17:23.125Z,70.99
2022-11-16T21:20:25.273Z,70.97
2022-11-16T21:22:50.021Z,71.05
2022-11-16T21:25:23.571Z,71.04
2022-11-16T21:27:57.210Z,70.88
2022-11-16T21:30:32.138Z,70.92
2022-11-16T21:33:05.744Z,70.93
2022-11-16T21:35:41.069Z,70.99
2022-11-16T21:38:14.500Z,70.88
2022-11-16T21:40:48.028Z,70.95
2022-11-16T21:43:21.554Z,71.08
2022-11-16T21:46:02.945Z,71.10
2022-11-16T21:48:39.049Z,70.81
2022-11-16T21:51:14.248Z,70.97
2022-11-16T21:53:48.228Z,71.19
2022-11-16T21:56:22.051Z,70.80
2022-11-16T21:58:55.982Z,70.71
2022-11-16T22:01:50.672Z,70.55
2022-11-16T22:04:41.539Z,70.72
2022-11-16T22:07:37.162Z,70.83
2022-11-16T22:10:12.152Z,70.88
2022-11-16T22:12:46.010Z,71.02
2022-11-16T22:15:19.760Z,70.86
2022-11-16T22:17:57.266Z,71.17
2022-11-16T22:20:30.766Z,70.93
2022-11-16T22:23:04.375Z,70.80
2022-11-16T22:25:38.389Z,70.84
2022-11-16T22:28:20.649Z,70.68
2022-11-16T22:31:01.166Z,70.69
2022-11-16T22:33:36.638Z,70.81
2022-11-16T22:36:11.498Z,70.79
2022-11-16T22:38:45.071Z,70.81
2022-11-16T22:41:18.607Z,70.71
2022-11-16T22:43:52.407Z,70.65
2022-11-16T22:46:27.586Z,70.39
2022-11-16T22:49:02.668Z,70.43
2022-11-16T22:51:36.196Z,70.64
2022-11-16T22:54:12.896Z,70.72
2022-11-16T22:56:48.563Z,70.42
2022-11-16T22:59:22.020Z,70.55
2022-11-16T23:01:55.457Z,70.47
2022-11-16T23:04:30.467Z,70.47
2022-11-16T23:07:04.101Z,70.27
2022-11-16T23:09:37.839Z,70.07
2022-11-16T23:12:31.538Z,70.18
2022-11-16T23:15:23.122Z,70.13
2022-11-16T23:17:56.787Z,70.02
2022-11-16T23:20:48.944Z,69.95
2022-11-16T23:23:40.339Z,69.87
2022-11-16T23:26:34.028Z,69.84
2022-11-16T23:29:10.658Z,69.85
2022-11-16T23:31:44.401Z,69.84
2022-11-16T23:34:18.269Z,69.79
2022-11-16T23:36:53.545Z,69.81
2022-11-16T23:39:32.438Z,69.63
2022-11-16T23:42:23.508Z,69.77
2022-11-16T23:44:57.096Z,69.38
2022-11-16T23:47:30.817Z,69.38
2022-11-16T23:50:04.696Z,69.46
2022-11-16T23:52:39.774Z,69.38
2022-11-16T23:55:13.428Z,69.52
2022-11-16T23:57:47.130Z,69.22
